createdAt,value
2023-12-30T00:02:06.650Z,7.22
2023-12-30T00:04:36.398Z,7.22
2023-12-30T00:07:08.866Z,7.21
2023-12-30T00:09:39.034Z,7.22
2023-12-30T00:12:09.387Z,7.18
2023-12-30T00:14:39.117Z,7.16
2023-12-30T00:17:08.884Z,7.13
2023-12-30T00:19:43.818Z,7.12
2023-12-30T00:22:16.272Z,7.09
2023-12-30T00:24:46.594Z,7.08
2023-12-30T00:27:16.384Z,7.11
2023-12-30T00:29:46.154Z,7.14
2023-12-30T00:32:16.341Z,7.14
2023-12-30T00:34:46.276Z,7.16
2023-12-30T00:37:20.686Z,7.17
2023-12-30T00:39:50.911Z,7.18
2023-12-30T00:42:20.696Z,7.18
2023-12-30T00:44:50.452Z,7.22
2023-12-30T00:47:20.911Z,7.26
2023-12-30T00:49:50.706Z,7.32
2023-12-30T00:52:23.414Z,7.36
2023-12-30T00:54:53.252Z,7.39
2023-12-30T00:57:23.058Z,7.40
2023-12-30T00:59:55.806Z,7.41
2023-12-30T01:02:25.580Z,7.44
2023-12-30T01:04:55.722Z,7.51
2023-12-30T01:07:28.254Z,7.61
2023-12-30T01:09:58.110Z,7.70
2023-12-30T01:12:27.921Z,7.77
2023-12-30T01:14:57.668Z,7.81
2023-12-30T01:17:28.065Z,7.79
2023-12-30T01:19:57.956Z,7.71
2023-12-30T01:22:30.314Z,7.62
2023-12-30T01:25:00.251Z,7.57
2023-12-30T01:27:30.197Z,7.53
2023-12-30T01:29:59.952Z,7.48
2023-12-30T01:32:29.749Z,7.45
2023-12-30T01:35:00.855Z,7.44
2023-12-30T01:37:33.579Z,7.48
2023-12-30T01:40:03.948Z,7.49
2023-12-30T01:42:33.696Z,7.49
2023-12-30T01:45:03.731Z,7.48
2023-12-30T01:47:34.075Z,7.48
2023-12-30T01:50:04.007Z,7.48
2023-12-30T01:52:37.603Z,7.51
2023-12-30T01:55:08.256Z,7.55
2023-12-30T01:57:38.885Z,7.57
2023-12-30T02:00:10.278Z,7.59
2023-12-30T02:02:43.936Z,7.65
2023-12-30T02:05:14.832Z,7.70
2023-12-30T02:07:51.152Z,7.78
2023-12-30T02:10:20.978Z,7.82
2023-12-30T02:12:50.773Z,7.87
2023-12-30T02:15:23.012Z,7.91
2023-12-30T02:17:56.404Z,7.93
2023-12-30T02:20:26.403Z,7.92
2023-12-30T02:22:58.862Z,7.91
2023-12-30T02:25:28.731Z,7.88
2023-12-30T02:27:58.568Z,7.79
2023-12-30T02:30:28.375Z,7.67
2023-12-30T02:33:00.350Z,7.55
2023-12-30T02:35:31.095Z,7.44
2023-12-30T02:38:03.511Z,7.36
2023-12-30T02:40:33.363Z,7.30
2023-12-30T02:43:03.338Z,7.25
2023-12-30T02:45:33.718Z,7.24
2023-12-30T02:48:04.198Z,7.21
2023-12-30T02:50:34.004Z,7.18
2023-12-30T02:53:06.704Z,7.16
2023-12-30T02:55:37.216Z,7.20
2023-12-30T02:58:07.307Z,7.23
2023-12-30T03:00:37.154Z,7.22
2023-12-30T03:03:07.676Z,7.17
2023-12-30T03:05:37.517Z,7.09
2023-12-30T03:08:10.219Z,7.05
2023-12-30T03:10:40.028Z,7.08
2023-12-30T03:13:09.847Z,7.15
2023-12-30T03:15:39.652Z,7.22
2023-12-30T03:18:09.714Z,7.32
2023-12-30T03:20:39.524Z,7.40
2023-12-30T03:23:11.887Z,7.48
2023-12-30T03:25:41.617Z,7.54
2023-12-30T03:28:11.453Z,7.58
2023-12-30T03:30:41.308Z,7.61
2023-12-30T03:33:11.565Z,7.62
2023-12-30T03:35:41.457Z,7.63
2023-12-30T03:38:13.999Z,7.66
2023-12-30T03:40:44.006Z,7.70
2023-12-30T03:43:13.864Z,7.71
2023-12-30T03:45:44.069Z,7.71
2023-12-30T03:48:15.017Z,7.68
2023-12-30T03:50:45.026Z,7.63
2023-12-30T03:53:17.863Z,7.61
2023-12-30T03:55:48.272Z,7.58
2023-12-30T03:58:18.181Z,7.56
2023-12-30T04:00:48.078Z,7.54
2023-12-30T04:03:15.983Z,7.52
2023-12-30T04:05:46.186Z,7.53
2023-12-30T04:08:18.646Z,7.50
2023-12-30T04:10:48.429Z,7.51
2023-12-30T04:13:18.207Z,7.53
2023-12-30T04:15:48.074Z,7.51
2023-12-30T04:18:18.111Z,7.49
2023-12-30T04:20:48.077Z,7.43
2023-12-30T04:23:20.459Z,7.36
2023-12-30T04:25:50.468Z,7.27
2023-12-30T04:28:20.440Z,7.16
2023-12-30T04:30:50.706Z,7.08
2023-12-30T04:33:20.689Z,6.99
2023-12-30T04:35:50.717Z,6.89
2023-12-30T04:38:23.164Z,6.80
2023-12-30T04:40:53.318Z,6.74
2023-12-30T04:43:23.115Z,6.71
2023-12-30T04:45:53.444Z,6.71
2023-12-30T04:48:23.346Z,6.80
2023-12-30T04:50:53.522Z,6.89
2023-12-30T04:53:26.662Z,7.01
2023-12-30T04:55:56.396Z,7.11
2023-12-30T04:58:26.193Z,7.21
2023-12-30T05:00:56.086Z,7.28
2023-12-30T05:03:25.920Z,7.35
2023-12-30T05:05:57.124Z,7.42
2023-12-30T05:08:29.589Z,7.44
2023-12-30T05:10:59.607Z,7.41
2023-12-30T05:13:29.657Z,7.37
2023-12-30T05:15:59.463Z,7.36
2023-12-30T05:18:29.318Z,7.33
2023-12-30T05:20:59.348Z,7.32
2023-12-30T05:23:31.724Z,7.33
2023-12-30T05:26:01.531Z,7.34
2023-12-30T05:28:31.552Z,7.33
2023-12-30T05:31:01.479Z,7.32
2023-12-30T05:33:31.388Z,7.34
2023-12-30T05:36:01.233Z,7.38
2023-12-30T05:38:33.837Z,7.43
2023-12-30T05:41:03.759Z,7.48
2023-12-30T05:43:33.617Z,7.51
2023-12-30T05:46:03.459Z,7.54
2023-12-30T05:48:33.323Z,7.56
2023-12-30T05:51:03.292Z,7.58
2023-12-30T05:53:36.693Z,7.58
2023-12-30T05:56:06.961Z,7.57
2023-12-30T05:58:36.913Z,7.54
2023-12-30T06:01:07.148Z,7.52
2023-12-30T06:03:36.973Z,7.51
2023-12-30T06:06:07.027Z,7.50
2023-12-30T06:08:39.440Z,7.48
2023-12-30T06:11:09.300Z,7.48
2023-12-30T06:13:40.555Z,7.51
2023-12-30T06:16:12.072Z,7.52
2023-12-30T06:18:42.021Z,7.55
2023-12-30T06:21:12.055Z,7.56
2023-12-30T06:23:44.708Z,7.56
2023-12-30T06:26:14.469Z,7.55
2023-12-30T06:28:44.394Z,7.53
2023-12-30T06:31:14.313Z,7.52
2023-12-30T06:33:44.402Z,7.48
2023-12-30T06:36:22.731Z,7.40
2023-12-30T06:38:55.384Z,7.33
2023-12-30T06:41:25.368Z,7.33
2023-12-30T06:43:55.653Z,7.32
2023-12-30T06:46:25.450Z,7.28
2023-12-30T06:48:55.463Z,7.18
2023-12-30T06:51:25.312Z,7.06
2023-12-30T06:53:57.733Z,6.93
2023-12-30T06:56:27.829Z,6.83
2023-12-30T06:58:57.768Z,6.76
2023-12-30T07:01:28.363Z,6.67
2023-12-30T07:03:58.206Z,6.62
2023-12-30T07:06:27.960Z,6.54
2023-12-30T07:09:00.295Z,6.49
2023-12-30T07:11:30.624Z,6.45
2023-12-30T07:14:00.368Z,6.43
2023-12-30T07:16:30.164Z,6.45
2023-12-30T07:19:00.021Z,6.46
2023-12-30T07:21:30.044Z,6.45
2023-12-30T07:24:02.393Z,6.46
2023-12-30T07:26:32.139Z,6.51
2023-12-30T07:29:02.443Z,6.56
2023-12-30T07:31:32.226Z,6.62
2023-12-30T07:34:02.500Z,6.65
2023-12-30T07:36:32.891Z,6.69
2023-12-30T07:39:05.624Z,6.76
2023-12-30T07:41:35.972Z,6.84
2023-12-30T07:44:07.091Z,6.92
2023-12-30T07:46:37.164Z,6.98
2023-12-30T07:49:07.449Z,7.03
2023-12-30T07:51:39.035Z,7.12
2023-12-30T07:54:14.244Z,7.21
2023-12-30T07:56:44.366Z,7.28
2023-12-30T07:59:15.314Z,7.35
2023-12-30T08:01:46.978Z,7.43
2023-12-30T08:04:17.866Z,7.49
2023-12-30T08:06:48.216Z,7.53
2023-12-30T08:09:21.062Z,7.55
2023-12-30T08:11:59.205Z,7.56
2023-12-30T08:14:32.616Z,7.55
2023-12-30T08:17:02.678Z,7.53
2023-12-30T08:19:32.419Z,7.54
2023-12-30T08:22:03.562Z,7.54
2023-12-30T08:24:35.894Z,7.52
2023-12-30T08:27:05.678Z,7.51
2023-12-30T08:29:35.657Z,7.49
2023-12-30T08:32:08.093Z,7.52
2023-12-30T08:34:38.007Z,7.57
2023-12-30T08:37:09.970Z,7.66
2023-12-30T08:39:42.923Z,7.77
2023-12-30T08:42:12.691Z,7.88
2023-12-30T08:44:45.293Z,7.96
2023-12-30T08:47:16.764Z,8.03
2023-12-30T08:49:46.684Z,8.09
2023-12-30T08:52:16.626Z,8.13
2023-12-30T08:54:48.969Z,8.17
2023-12-30T08:57:18.781Z,8.18
2023-12-30T08:59:49.560Z,8.21
2023-12-30T09:02:19.429Z,8.22
2023-12-30T09:04:49.203Z,8.24
2023-12-30T09:07:19.093Z,8.26
2023-12-30T09:09:51.535Z,8.27
2023-12-30T09:12:21.424Z,8.28
2023-12-30T09:14:51.241Z,8.32
2023-12-30T09:17:21.279Z,8.35
2023-12-30T09:19:51.088Z,8.38
2023-12-30T09:22:20.881Z,8.41
2023-12-30T09:24:53.239Z,8.45
2023-12-30T09:27:22.980Z,8.47
2023-12-30T09:29:52.737Z,8.49
2023-12-30T09:32:23.877Z,8.51
2023-12-30T09:34:54.820Z,8.54
2023-12-30T09:37:24.671Z,8.58
2023-12-30T09:39:57.211Z,8.63
2023-12-30T09:42:27.194Z,8.66
2023-12-30T09:44:57.765Z,8.70
2023-12-30T09:47:28.419Z,8.74
2023-12-30T09:49:58.692Z,8.79
2023-12-30T09:52:28.501Z,8.84
2023-12-30T09:55:00.879Z,8.89
2023-12-30T09:57:30.933Z,8.94
2023-12-30T10:00:01.150Z,8.98
2023-12-30T10:02:31.313Z,9.02
2023-12-30T10:05:01.896Z,9.08
2023-12-30T10:07:33.127Z,9.15
2023-12-30T10:10:06.043Z,9.26
2023-12-30T10:12:35.842Z,9.33
2023-12-30T10:15:05.536Z,9.41
2023-12-30T10:17:35.544Z,9.48
2023-12-30T10:20:05.972Z,9.57
2023-12-30T10:22:36.705Z,9.63
2023-12-30T10:25:10.682Z,9.68
2023-12-30T10:27:42.763Z,9.70
2023-12-30T10:30:16.164Z,9.75
2023-12-30T10:32:46.317Z,9.79
2023-12-30T10:35:16.306Z,9.84
2023-12-30T10:37:46.476Z,9.93
2023-12-30T10:40:19.636Z,10.03
2023-12-30T10:42:49.349Z,10.09
2023-12-30T10:45:19.709Z,10.12
2023-12-30T10:47:49.667Z,10.13
2023-12-30T10:50:19.877Z,10.15
2023-12-30T10:53:00.430Z,10.20
2023-12-30T10:55:37.863Z,10.25
2023-12-30T10:58:10.820Z,10.31
2023-12-30T11:00:41.779Z,10.36
2023-12-30T11:03:11.546Z,10.35
2023-12-30T11:05:47.337Z,10.34
2023-12-30T11:08:19.138Z,10.33
2023-12-30T11:10:54.297Z,10.31
2023-12-30T11:13:24.215Z,10.28
2023-12-30T11:15:54.217Z,10.29
2023-12-30T11:18:49.345Z,10.33
2023-12-30T11:21:37.314Z,10.35
2023-12-30T11:24:09.094Z,10.39
2023-12-30T11:26:46.061Z,10.43
2023-12-30T11:29:18.366Z,10.43
2023-12-30T11:31:50.732Z,10.40
2023-12-30T11:34:20.828Z,10.37
2023-12-30T11:36:51.445Z,10.39
2023-12-30T11:39:27.744Z,10.41
2023-12-30T11:42:00.749Z,10.44
2023-12-30T11:44:31.575Z,10.50
2023-12-30T11:47:02.244Z,10.55
2023-12-30T11:49:32.825Z,10.58
2023-12-30T11:52:06.236Z,10.58
2023-12-30T11:54:37.183Z,10.59
2023-12-30T11:57:11.166Z,10.57
2023-12-30T11:59:45.376Z,10.59
2023-12-30T12:02:16.002Z,10.64
2023-12-30T12:04:46.427Z,10.70
2023-12-30T12:07:16.216Z,10.76
2023-12-30T12:09:46.429Z,10.84
2023-12-30T12:12:24.932Z,10.91
2023-12-30T12:14:55.756Z,10.96
2023-12-30T12:17:25.536Z,11.00
2023-12-30T12:19:55.310Z,11.03
2023-12-30T12:22:25.121Z,11.02
2023-12-30T12:24:56.510Z,10.97
2023-12-30T12:27:28.935Z,10.94
2023-12-30T12:29:58.950Z,10.87
2023-12-30T12:32:31.117Z,10.78
2023-12-30T12:35:02.091Z,10.71
2023-12-30T12:37:32.775Z,10.65
2023-12-30T12:40:00.174Z,10.56
2023-12-30T12:42:32.651Z,10.55
2023-12-30T12:45:02.398Z,10.57
2023-12-30T12:47:32.189Z,10.58
2023-12-30T12:50:02.280Z,10.58
2023-12-30T12:52:32.277Z,10.59
2023-12-30T12:55:02.131Z,10.56
2023-12-30T12:57:34.947Z,10.55
2023-12-30T13:00:08.491Z,10.54
2023-12-30T13:02:38.632Z,10.54
2023-12-30T13:05:11.091Z,10.54
2023-12-30T13:07:43.460Z,10.53
2023-12-30T13:10:35.414Z,10.53
2023-12-30T13:13:08.755Z,10.47
2023-12-30T13:15:40.040Z,10.41
2023-12-30T13:18:14.685Z,10.36
2023-12-30T13:20:46.592Z,10.32
2023-12-30T13:23:17.502Z,10.27
2023-12-30T13:25:48.603Z,10.21
2023-12-30T13:28:21.218Z,10.17
2023-12-30T13:30:52.235Z,10.15
2023-12-30T13:33:22.937Z,10.14
2023-12-30T13:35:53.696Z,10.13
2023-12-30T13:38:25.088Z,10.13
2023-12-30T13:40:59.877Z,10.14
2023-12-30T13:43:32.206Z,10.13
2023-12-30T13:46:23.241Z,10.09
2023-12-30T13:49:20.526Z,10.04
2023-12-30T13:51:50.283Z,9.99
2023-12-30T13:54:22.028Z,9.99
2023-12-30T13:57:02.429Z,9.95
2023-12-30T13:59:34.771Z,9.91
2023-12-30T14:02:04.782Z,9.88
2023-12-30T14:04:35.268Z,9.89
2023-12-30T14:07:10.558Z,9.92
2023-12-30T14:09:50.602Z,9.91
2023-12-30T14:12:21.731Z,9.87
2023-12-30T14:14:59.650Z,9.81
2023-12-30T14:17:32.694Z,9.74
2023-12-30T14:20:05.639Z,9.64
2023-12-30T14:22:36.060Z,9.57
2023-12-30T14:25:06.599Z,9.50
2023-12-30T14:27:37.200Z,9.42
2023-12-30T14:30:13.337Z,9.34
2023-12-30T14:32:45.817Z,9.25
2023-12-30T14:35:16.862Z,9.18
2023-12-30T14:37:46.619Z,9.10
2023-12-30T14:40:17.009Z,9.04
2023-12-30T14:42:48.461Z,9.00
2023-12-30T14:45:22.192Z,9.02
2023-12-30T14:47:52.343Z,9.05
2023-12-30T14:50:22.416Z,9.08
2023-12-30T14:52:52.256Z,9.11
2023-12-30T14:55:19.688Z,9.12
2023-12-30T14:57:50.147Z,9.13
2023-12-30T15:00:25.496Z,9.14
2023-12-30T15:02:56.258Z,9.13
2023-12-30T15:05:26.384Z,9.13
2023-12-30T15:07:57.845Z,9.14
2023-12-30T15:10:28.138Z,9.16
2023-12-30T15:12:57.914Z,9.17
2023-12-30T15:15:30.197Z,9.20
2023-12-30T15:18:00.326Z,9.24
2023-12-30T15:20:30.322Z,9.27
2023-12-30T15:23:00.129Z,9.27
2023-12-30T15:25:29.905Z,9.30
2023-12-30T15:27:59.834Z,9.32
2023-12-30T15:30:32.199Z,9.32
2023-12-30T15:33:02.620Z,9.34
2023-12-30T15:35:32.898Z,9.33
2023-12-30T15:38:02.730Z,9.34
2023-12-30T15:40:34.244Z,9.33
2023-12-30T15:43:08.159Z,9.34
2023-12-30T15:45:42.452Z,9.35
2023-12-30T15:48:12.421Z,9.36
2023-12-30T15:50:42.257Z,9.38
2023-12-30T15:53:12.232Z,9.39
2023-12-30T15:55:43.328Z,9.40
2023-12-30T15:58:14.542Z,9.42
2023-12-30T16:00:46.907Z,9.42
2023-12-30T16:03:17.742Z,9.41
2023-12-30T16:05:48.813Z,9.44
2023-12-30T16:08:19.296Z,9.44
2023-12-30T16:10:50.192Z,9.43
2023-12-30T16:13:20.376Z,9.40
2023-12-30T16:15:54.177Z,9.33
2023-12-30T16:18:26.235Z,9.24
2023-12-30T16:20:57.447Z,9.13
2023-12-30T16:23:27.535Z,9.09
2023-12-30T16:25:58.250Z,9.10
2023-12-30T16:28:28.435Z,9.10
2023-12-30T16:31:01.370Z,9.12
2023-12-30T16:33:31.624Z,9.07
2023-12-30T16:36:01.976Z,9.01
2023-12-30T16:38:31.726Z,8.94
2023-12-30T16:41:01.730Z,8.90
2023-12-30T16:43:35.398Z,8.85
2023-12-30T16:46:08.280Z,8.75
2023-12-30T16:48:38.957Z,8.62
2023-12-30T16:51:09.000Z,8.51
2023-12-30T16:53:39.179Z,8.42
2023-12-30T16:56:09.442Z,8.35
2023-12-30T16:58:40.045Z,8.26
2023-12-30T17:01:12.487Z,8.19
2023-12-30T17:03:42.254Z,8.13
2023-12-30T17:06:12.348Z,8.03
2023-12-30T17:08:42.174Z,7.91
2023-12-30T17:11:12.046Z,7.82
2023-12-30T17:13:46.775Z,7.75
2023-12-30T17:16:25.920Z,7.70
2023-12-30T17:18:56.169Z,7.63
2023-12-30T17:21:25.887Z,7.60
2023-12-30T17:23:55.614Z,7.60
2023-12-30T17:26:25.379Z,7.62
2023-12-30T17:28:55.419Z,7.68
2023-12-30T17:31:27.869Z,7.73
2023-12-30T17:33:58.356Z,7.79
2023-12-30T17:36:28.123Z,7.84
2023-12-30T17:38:58.093Z,7.88
2023-12-30T17:41:28.078Z,7.92
2023-12-30T17:43:58.762Z,7.97
2023-12-30T17:46:32.221Z,8.01
2023-12-30T17:49:02.579Z,8.03
2023-12-30T17:51:32.615Z,8.02
2023-12-30T17:54:02.658Z,7.97
2023-12-30T17:56:32.760Z,7.87
2023-12-30T17:59:02.540Z,7.79
2023-12-30T18:01:35.977Z,7.70
2023-12-30T18:04:05.792Z,7.66
2023-12-30T18:06:38.080Z,7.65
2023-12-30T18:09:11.239Z,7.67
2023-12-30T18:11:41.709Z,7.72
2023-12-30T18:14:12.879Z,7.76
2023-12-30T18:16:45.405Z,7.81
2023-12-30T18:19:15.839Z,7.83
2023-12-30T18:21:46.771Z,7.84
2023-12-30T18:24:16.850Z,7.85
2023-12-30T18:26:51.364Z,7.84
2023-12-30T18:29:21.158Z,7.81
2023-12-30T18:31:53.636Z,7.78
2023-12-30T18:34:23.568Z,7.75
2023-12-30T18:36:53.509Z,7.72
2023-12-30T18:39:23.380Z,7.69
2023-12-30T18:41:53.173Z,7.64
2023-12-30T18:44:23.058Z,7.58
2023-12-30T18:46:55.759Z,7.54
2023-12-30T18:49:25.624Z,7.54
2023-12-30T18:51:55.666Z,7.56
2023-12-30T18:54:25.669Z,7.56
2023-12-30T18:56:55.936Z,7.56
2023-12-30T18:59:25.822Z,7.58
2023-12-30T19:01:58.497Z,7.59
2023-12-30T19:04:28.400Z,7.59
2023-12-30T19:06:58.170Z,7.56
2023-12-30T19:09:27.947Z,7.53
2023-12-30T19:11:57.689Z,7.47
2023-12-30T19:14:27.480Z,7.39
2023-12-30T19:16:59.902Z,7.29
2023-12-30T19:19:29.719Z,7.19
2023-12-30T19:22:00.102Z,7.10
2023-12-30T19:24:29.915Z,7.03
2023-12-30T19:26:59.672Z,6.99
2023-12-30T19:29:29.425Z,6.92
2023-12-30T19:32:02.353Z,6.85
2023-12-30T19:34:32.721Z,6.79
2023-12-30T19:37:03.197Z,6.74
2023-12-30T19:39:33.290Z,6.70
2023-12-30T19:42:03.614Z,6.69
2023-12-30T19:44:33.692Z,6.67
2023-12-30T19:47:06.432Z,6.67
2023-12-30T19:49:36.477Z,6.65
2023-12-30T19:52:06.867Z,6.65
2023-12-30T19:54:37.292Z,6.68
2023-12-30T19:57:07.318Z,6.71
2023-12-30T19:59:41.114Z,6.81
2023-12-30T20:02:13.579Z,6.90
2023-12-30T20:04:43.820Z,7.02
2023-12-30T20:07:13.744Z,7.13
2023-12-30T20:09:45.786Z,7.23
2023-12-30T20:12:17.757Z,7.29
2023-12-30T20:14:47.695Z,7.33
2023-12-30T20:17:20.279Z,7.32
2023-12-30T20:19:50.476Z,7.29
2023-12-30T20:22:21.206Z,7.28
2023-12-30T20:24:51.023Z,7.32
2023-12-30T20:27:20.794Z,7.36
2023-12-30T20:29:50.918Z,7.44
2023-12-30T20:32:23.430Z,7.51
2023-12-30T20:34:54.207Z,7.56
2023-12-30T20:37:24.697Z,7.60
2023-12-30T20:39:54.512Z,7.61
2023-12-30T20:42:27.663Z,7.59
2023-12-30T20:44:57.473Z,7.61
2023-12-30T20:47:29.880Z,7.65
2023-12-30T20:49:59.756Z,7.71
2023-12-30T20:52:29.635Z,7.75
2023-12-30T20:55:01.190Z,7.82
2023-12-30T20:57:31.107Z,7.87
2023-12-30T21:00:00.917Z,7.92
2023-12-30T21:02:33.271Z,7.96
2023-12-30T21:05:03.035Z,8.01
2023-12-30T21:07:32.828Z,8.03
2023-12-30T21:10:03.240Z,8.07
2023-12-30T21:12:33.004Z,8.09
2023-12-30T21:15:02.799Z,8.14
2023-12-30T21:17:35.160Z,8.16
2023-12-30T21:20:06.311Z,8.20
2023-12-30T21:22:36.147Z,8.22
2023-12-30T21:25:15.868Z,8.20
2023-12-30T21:27:52.942Z,8.15
2023-12-30T21:30:22.765Z,8.12
2023-12-30T21:32:56.019Z,8.10
2023-12-30T21:35:25.894Z,8.10
2023-12-30T21:37:56.016Z,8.12
2023-12-30T21:40:26.056Z,8.15
2023-12-30T21:42:55.889Z,8.18
2023-12-30T21:45:25.673Z,8.21
2023-12-30T21:47:58.091Z,8.22
2023-12-30T21:50:28.406Z,8.22
2023-12-30T21:52:58.710Z,8.20
2023-12-30T21:55:28.499Z,8.18
2023-12-30T21:57:58.291Z,8.17
2023-12-30T22:00:28.147Z,8.17
2023-12-30T22:03:00.660Z,8.17
2023-12-30T22:05:30.836Z,8.17
2023-12-30T22:08:00.611Z,8.14
2023-12-30T22:10:30.566Z,8.12
2023-12-30T22:13:00.520Z,8.07
2023-12-30T22:15:30.928Z,8.05
2023-12-30T22:18:03.442Z,8.00
2023-12-30T22:20:33.204Z,7.96
2023-12-30T22:23:03.257Z,7.96
2023-12-30T22:25:33.225Z,7.99
2023-12-30T22:28:02.957Z,8.03
2023-12-30T22:30:32.813Z,8.03
2023-12-30T22:33:05.437Z,8.05
2023-12-30T22:35:35.337Z,8.06
2023-12-30T22:38:05.173Z,8.07
2023-12-30T22:40:36.571Z,8.06
2023-12-30T22:43:07.005Z,8.07
2023-12-30T22:45:38.232Z,8.07
2023-12-30T22:48:11.910Z,8.07
2023-12-30T22:50:42.177Z,8.07
2023-12-30T22:53:11.916Z,8.07
2023-12-30T22:55:41.722Z,8.08
2023-12-30T22:58:11.712Z,8.10
2023-12-30T23:00:41.510Z,8.10
2023-12-30T23:03:15.402Z,8.11
2023-12-30T23:05:45.206Z,8.13
2023-12-30T23:08:14.987Z,8.15
2023-12-30T23:10:45.342Z,8.18
2023-12-30T23:13:15.789Z,8.17
2023-12-30T23:15:46.811Z,8.12
2023-12-30T23:18:19.540Z,8.03
2023-12-30T23:20:49.382Z,7.96
2023-12-30T23:23:19.133Z,7.88
2023-12-30T23:25:49.078Z,7.84
2023-12-30T23:28:18.905Z,7.85
2023-12-30T23:30:48.668Z,7.89
2023-12-30T23:33:21.238Z,7.93
2023-12-30T23:35:51.099Z,7.95
2023-12-30T23:38:20.846Z,7.95
2023-12-30T23:40:50.765Z,7.94
2023-12-30T23:43:20.581Z,7.92
2023-12-30T23:45:50.613Z,7.91
2023-12-30T23:48:23.254Z,7.89
2023-12-30T23:50:53.182Z,7.89
2023-12-30T23:53:22.991Z,7.89
2023-12-30T23:55:53.286Z,7.87
2023-12-30T23:58:23.133Z,7.83
